CheckWX is a tool to help pilots better visualize weather data.  It is not intended as a substitute for an official pre-flight weather briefing.

17:07:52 UTC

GCLP METAR
Gran Canaria Airport
Gran Canaria Island, Spain
Current

38 mins ago

GCLP 211630Z 02027KT 9999 FEW020 25/17 Q1018 NOSIG
Observed
Jul-21 @ 16:30 UTC
Wind
  • 020° at 27 KTS
Visibility
10,000+ meters
Flight Rules
VFR
Cloud Levels
  • Few at 2,000' AGL
Temperature
25°C / 77°F
Dewpoint
17°C / 63°F
Humidity
61%
Altimeter
30.06" Hg
Pressure
1017.92 hPa
Previous

1 hour ago

GCLP 211600Z 02028KT 9999 FEW020 25/17 Q1018 NOSIG
Observed
Jul-21 @ 16:00 UTC
Wind
  • 020° at 28 KTS
Visibility
10,000+ meters
Flight Rules
VFR
Cloud Levels
  • Few at 2,000' AGL
Temperature
25°C / 77°F
Dewpoint
17°C / 63°F
Humidity
61%
Altimeter
30.06" Hg
Pressure
1017.92 hPa
Previous

2 hours ago

GCLP 211530Z 02028KT 9999 FEW020 26/17 Q1018 NOSIG
Observed
Jul-21 @ 15:30 UTC
Wind
  • 020° at 28 KTS
Visibility
10,000+ meters
Flight Rules
VFR
Cloud Levels
  • Few at 2,000' AGL
Temperature
26°C / 79°F
Dewpoint
17°C / 63°F
Humidity
58%
Altimeter
30.06" Hg
Pressure
1017.92 hPa